Impacts METAR Board
IDs:

KTPA - Tampa Intl Arpt, FL, US

Updated at: 0400 UTC 06 Dec 2019
Potential Impact None Slight Moderate High
Time 05/16Z 05/17Z 05/18Z 05/19Z 05/20Z 05/21Z 05/22Z 05/23Z 06/00Z 06/01Z 06/02Z 06/03Z 06/04Z
Temp65 65 65 67 68 69 66 63 59 59 57 57 56
Dewpt37 37 38 39 37 37 37 39 42 43 44 45 45
Altim30.16 30.15 30.13 30.12 30.11 30.10 30.12 30.13 30.15 30.18 30.19 30.19 30.19
VIS10 10 10 10 10 10 10 10 10 10 10 10 10
CIG250 250 250 280 340 350 -- 350 -- 350 320 -- --
CoverBKNBKNBKNBKNBKNBKNSCTBKNFEWBKNBKNSCTSCT
FltCatVFRVFRVFRVFRVFRVFRVFRVFRVFRVFRVFRVFRVFR
WX--------------------------
WDir20303503403600360303400204040
WSpd8 6 4 4 5 3 7 4 3 3 4 3 4
WGst-- -- -- -- -- -- -- -- -- -- -- -- --
Raw hourly METARs
KTPA 051553Z 02008KT 10SM BKN250 18/03 A3016 RMK AO2 SLP213 T01830028
KTPA 051653Z 03006KT 10SM BKN250 18/03 A3015 RMK AO2 SLP208 T01830028
KTPA 051753Z 35004KT 10SM BKN250 18/03 A3013 RMK AO2 SLP202 T01830033 10189 20122 58012
KTPA 051853Z 34004KT 10SM BKN280 19/04 A3012 RMK AO2 SLP198 T01940039
KTPA 051953Z 36005KT 10SM BKN340 20/03 A3011 RMK AO2 SLP195 T02000028
KTPA 052053Z VRB03KT 10SM BKN350 21/03 A3010 RMK AO2 SLP191 T02060028 57011
KTPA 052153Z 36007KT 10SM SCT350 19/03 A3012 RMK AO2 SLP198 T01890028
KTPA 052253Z 03004KT 10SM BKN350 17/04 A3013 RMK AO2 SLP204 T01720039
KTPA 052353Z 34003KT 10SM FEW350 15/06 A3015 RMK AO2 SLP210 T01500056 10211 20150 51019
KTPA 060053Z VRB03KT 10SM BKN350 15/06 A3018 RMK AO2 SLP218 T01500061
KTPA 060153Z 02004KT 10SM BKN320 14/07 A3019 RMK AO2 SLP222 T01390067
KTPA 060253Z 04003KT 10SM SCT340 14/07 A3019 RMK AO2 SLP221 T01390072 50012
KTPA 060353Z 04004KT 10SM SCT340 13/07 A3019 RMK AO2 SLP224 T01330072



Page loaded:  04:07 UTC  |   08:07 PM Pacific  |   09:07 PM Mountain  |   10:07 PM Central  |   11:07 PM Eastern

 

ADVISORIES

FORECASTS

FORECASTS

OBSERVATIONS

USER TOOLS

ABOUT US